Time;durP1;ratioP1;P1;durP2;ratioP2;P2;SDS_P1;SDS_P2;PMS_P1;PMS_P2;Temp;Humidity;BMP_temperature;BMP_pressure;BME280_temperature;BME280_humidity;BME280_pressure;Samples;Min_cycle;Max_cycle;Signal;HPM_P1;HPM_P2
2023/08/22 00:02:19;;;;;;;7.43;6.43;;;;;;;23.96;98.20;98483.56;5052430;28;20219;-85
2023/08/22 00:04:46;;;;;;;7.40;6.60;;;;;;;23.97;97.97;98481.72;5052407;28;20212;-84
2023/08/22 00:07:13;;;;;;;6.73;6.03;;;;;;;23.91;98.71;98480.59;5052553;28;20281;-85
2023/08/22 00:09:41;;;;;;;7.73;6.60;;;;;;;23.90;98.97;98481.59;5052179;28;20292;-85
2023/08/22 00:12:08;;;;;;;7.17;6.03;;;;;;;23.86;99.49;98477.56;5052301;28;20231;-85
2023/08/22 00:14:34;;;;;;;7.47;6.73;;;;;;;23.84;99.80;98476.06;5052470;28;20583;-85
2023/08/22 00:17:01;;;;;;;6.50;5.90;;;;;;;23.82;99.91;98472.69;5016662;28;1039359;-85
2023/08/22 00:19:27;;;;;;;6.70;6.07;;;;;;;23.81;99.87;98471.00;5052933;28;20259;-85
2023/08/22 00:21:54;;;;;;;8.47;6.77;;;;;;;23.88;99.18;98470.13;5053211;28;20215;-85
2023/08/22 00:24:20;;;;;;;8.27;6.20;;;;;;;23.88;98.40;98464.75;5053068;28;20208;-85
2023/08/22 00:26:48;;;;;;;7.03;6.33;;;;;;;23.89;98.36;98461.00;5052972;28;20235;-84
2023/08/22 00:29:14;;;;;;;7.40;6.60;;;;;;;23.92;98.30;98460.66;5051552;28;20215;-84
2023/08/22 00:31:41;;;;;;;7.13;6.40;;;;;;;23.87;98.50;98463.06;5053118;28;20208;-84
2023/08/22 00:34:07;;;;;;;7.07;6.37;;;;;;;23.87;99.04;98463.06;5053047;28;20212;-84
2023/08/22 00:36:34;;;;;;;6.80;6.10;;;;;;;23.76;98.95;98457.19;5052933;28;20235;-85
2023/08/22 00:39:00;;;;;;;6.60;5.90;;;;;;;23.65;99.80;98463.88;5052670;28;20669;-85
2023/08/22 00:41:27;;;;;;;7.03;6.33;;;;;;;23.57;100.00;98463.94;5052610;28;20218;-85
2023/08/22 00:43:55;;;;;;;6.80;6.10;;;;;;;23.48;100.00;98466.88;5053003;28;20226;-85
2023/08/22 00:46:23;;;;;;;7.17;6.20;;;;;;;23.39;100.00;98474.16;5052566;28;20224;-85
2023/08/22 00:48:50;;;;;;;7.97;6.90;;;;;;;23.33;100.00;98465.94;5053088;28;20204;-85
2023/08/22 00:51:18;;;;;;;7.30;6.40;;;;;;;23.30;100.00;98460.91;5052392;28;20604;-85
2023/08/22 00:53:45;;;;;;;8.57;6.43;;;;;;;23.32;100.00;98457.00;5052448;28;20227;-84
2023/08/22 00:56:12;;;;;;;9.23;6.83;;;;;;;23.26;100.00;98457.72;5052676;28;20247;-86
2023/08/22 00:58:39;;;;;;;7.40;6.17;;;;;;;23.22;100.00;98461.78;5052329;28;20215;-86
2023/08/22 01:01:07;;;;;;;7.10;6.40;;;;;;;23.17;100.00;98453.38;5052324;28;20235;-84
2023/08/22 01:03:35;;;;;;;7.53;6.73;;;;;;;23.12;100.00;98465.69;5052624;28;20210;-85
2023/08/22 01:06:09;;;;;;;7.60;6.83;;;;;;;23.09;100.00;98456.09;5052620;28;20285;-85
2023/08/22 01:08:39;;;;;;;6.47;5.80;;;;;;;23.06;100.00;98455.59;5052281;28;20208;-85
2023/08/22 01:11:13;;;;;;;7.27;6.57;;;;;;;23.04;100.00;98447.69;5052256;28;20220;-85
2023/08/22 01:13:43;;;;;;;7.87;6.50;;;;;;;23.02;100.00;98452.44;5052599;28;20234;-84
2023/08/22 01:16:12;;;;;;;7.70;6.40;;;;;;;22.99;100.00;98450.06;5052136;28;20236;-83
2023/08/22 01:18:40;;;;;;;7.77;6.87;;;;;;;22.94;100.00;98452.47;5052283;28;20214;-85
2023/08/22 01:21:07;;;;;;;7.57;6.43;;;;;;;22.93;100.00;98439.16;5051731;28;20235;-84
2023/08/22 01:23:35;;;;;;;7.30;6.57;;;;;;;22.91;100.00;98444.72;5052306;28;20215;-84
2023/08/22 01:26:02;;;;;;;6.67;6.00;;;;;;;22.93;100.00;98445.38;5052130;28;20228;-85
2023/08/22 01:28:34;;;;;;;6.93;6.23;;;;;;;22.92;100.00;98438.31;5052235;28;20295;-84
2023/08/22 01:31:08;;;;;;;7.00;6.30;;;;;;;22.94;100.00;98443.53;5052159;28;20215;-85
2023/08/22 01:33:38;;;;;;;6.97;6.20;;;;;;;22.94;100.00;98446.22;5063531;28;20207;-82
2023/08/22 01:36:09;;;;;;;8.03;6.13;;;;;;;22.86;100.00;98444.41;5069295;28;20256;-81
2023/08/22 01:38:41;;;;;;;7.37;6.67;;;;;;;22.80;100.00;98449.66;5069250;28;20217;-83
2023/08/22 01:41:08;;;;;;;7.40;6.43;;;;;;;22.76;100.00;98459.97;5056045;28;20242;-84
2023/08/22 01:43:36;;;;;;;7.83;7.03;;;;;;;22.76;100.00;98451.88;5051771;28;20211;-84
2023/08/22 01:46:03;;;;;;;6.90;6.20;;;;;;;22.83;100.00;98455.56;5051554;28;20315;-84
2023/08/22 01:48:29;;;;;;;9.27;7.13;;;;;;;22.85;100.00;98448.13;5051771;28;20392;-84
2023/08/22 01:50:56;;;;;;;7.63;6.83;;;;;;;22.86;100.00;98439.00;5051165;28;20214;-85
2023/08/22 01:53:22;;;;;;;7.63;6.73;;;;;;;22.85;100.00;98442.72;5051778;28;20204;-84
2023/08/22 01:55:50;;;;;;;8.03;6.33;;;;;;;22.86;100.00;98439.00;5051450;28;20228;-85
2023/08/22 01:58:17;;;;;;;8.50;6.60;;;;;;;22.85;100.00;98437.34;5051917;28;20211;-85
2023/08/22 02:00:43;;;;;;;8.53;6.67;;;;;;;22.88;100.00;98437.00;5051184;28;20706;-85
2023/08/22 02:03:10;;;;;;;8.30;6.60;;;;;;;22.90;100.00;98440.34;5051542;28;20204;-85
2023/08/22 02:05:36;;;;;;;7.33;6.53;;;;;;;22.91;100.00;98436.63;5051352;28;20220;-85
2023/08/22 02:08:04;;;;;;;7.83;6.23;;;;;;;22.93;100.00;98445.38;5051484;28;20212;-85
2023/08/22 02:10:31;;;;;;;6.90;6.20;;;;;;;22.92;100.00;98443.69;5051126;28;20246;-85
2023/08/22 02:12:59;;;;;;;6.93;6.17;;;;;;;22.88;100.00;98437.00;5051342;28;20219;-85
2023/08/22 02:15:25;;;;;;;7.37;6.50;;;;;;;22.83;100.00;98433.13;5051365;28;20243;-85
2023/08/22 02:17:52;;;;;;;7.10;6.40;;;;;;;22.80;100.00;98434.31;5051602;28;20216;-85
2023/08/22 02:20:19;;;;;;;7.37;6.30;;;;;;;22.82;100.00;98432.31;5050873;28;20228;-84
2023/08/22 02:22:45;;;;;;;6.77;6.07;;;;;;;22.80;100.00;98434.31;5051335;28;20216;-85
2023/08/22 02:25:12;;;;;;;7.37;6.67;;;;;;;22.79;100.00;98426.44;5051476;28;20212;-85
2023/08/22 02:27:39;;;;;;;7.70;6.87;;;;;;;22.78;100.00;98435.50;5051166;28;20208;-85
2023/08/22 02:30:08;;;;;;;7.83;6.50;;;;;;;22.78;100.00;98430.13;5051140;28;20212;-85
2023/08/22 02:32:35;;;;;;;8.23;6.40;;;;;;;22.72;100.00;98439.75;5051385;28;20208;-85
2023/08/22 02:35:02;;;;;;;6.97;6.27;;;;;;;22.69;100.00;98437.41;5051272;28;20204;-84
2023/08/22 02:37:29;;;;;;;7.77;6.70;;;;;;;22.72;100.00;98430.81;5051218;28;20220;-85
2023/08/22 02:39:55;;;;;;;7.83;6.80;;;;;;;22.69;100.00;98437.41;5050776;28;20718;-84
2023/08/22 02:42:22;;;;;;;6.63;6.03;;;;;;;22.68;100.00;98441.09;5051161;28;20211;-85
2023/08/22 02:44:48;;;;;;;6.80;6.10;;;;;;;22.68;100.00;98438.41;5051309;28;20209;-85
2023/08/22 02:47:16;;;;;;;7.83;7.03;;;;;;;22.66;100.00;98450.38;5050905;28;20228;-85
2023/08/22 02:49:43;;;;;;;7.20;6.27;;;;;;;22.66;100.00;98445.00;5050925;28;20215;-84
2023/08/22 02:52:09;;;;;;;7.07;6.30;;;;;;;22.68;100.00;98451.06;5053649;28;20208;-84
2023/08/22 02:54:36;;;;;;;6.80;6.10;;;;;;;22.71;100.00;98451.56;5054767;28;20204;-85
2023/08/22 02:57:02;;;;;;;6.57;5.90;;;;;;;22.68;100.00;98451.06;5054985;28;20220;-85
2023/08/22 02:59:29;;;;;;;7.43;6.27;;;;;;;22.65;100.00;98444.16;5054604;28;20212;-85
2023/08/22 03:01:55;;;;;;;8.17;6.47;;;;;;;22.66;100.00;98448.53;5054873;28;20212;-84
2023/08/22 03:04:23;;;;;;;8.07;6.50;;;;;;;22.67;100.00;98444.81;5054597;28;20698;-84
2023/08/22 03:06:50;;;;;;;7.57;5.83;;;;;;;22.68;100.00;98437.59;5054586;28;20220;-85
2023/08/22 03:09:16;;;;;;;6.57;5.77;;;;;;;22.69;100.00;98437.41;5054340;28;20215;-84
2023/08/22 03:11:43;;;;;;;9.23;6.30;;;;;;;22.64;100.00;98423.63;5054476;28;20204;-84
2023/08/22 03:14:10;;;;;;;7.00;6.30;;;;;;;22.64;100.00;98430.84;5054739;28;20203;-85
2023/08/22 03:16:37;;;;;;;7.30;5.60;;;;;;;22.63;100.00;98432.72;5069037;22;20232;-86
2023/08/22 03:19:03;;;;;;;5.77;5.20;;;;;;;22.58;100.00;98424.31;5054045;28;20290;-86
2023/08/22 03:21:31;;;;;;;5.67;5.17;;;;;;;22.53;100.00;98426.69;5053500;28;20228;-86
2023/08/22 03:23:57;;;;;;;7.07;5.90;;;;;;;22.52;100.00;98430.41;5053843;28;20207;-85
2023/08/22 03:26:24;;;;;;;7.10;6.17;;;;;;;22.48;100.00;98434.44;5053804;28;20224;-86
2023/08/22 03:28:50;;;;;;;6.67;5.80;;;;;;;22.44;100.00;98432.28;5053689;28;20224;-85
2023/08/22 03:31:17;;;;;;;6.77;6.00;;;;;;;22.37;100.00;98437.47;5053457;28;20219;-86
2023/08/22 03:33:43;;;;;;;7.13;6.43;;;;;;;22.32;100.00;98429.06;5053863;28;20231;-85
2023/08/22 03:36:10;;;;;;;7.00;6.30;;;;;;;22.27;100.00;98430.59;5053808;28;20239;-85
2023/08/22 03:38:38;;;;;;;8.83;6.67;;;;;;;22.19;100.00;98439.53;5053739;28;20314;-85
2023/08/22 03:41:04;;;;;;;7.00;5.97;;;;;;;22.15;100.00;98435.50;5053490;28;20236;-86
2023/08/22 03:43:31;;;;;;;7.07;6.37;;;;;;;22.08;100.00;98434.50;5053601;28;20212;-85
2023/08/22 03:45:57;;;;;;;7.03;5.80;;;;;;;22.03;100.00;98428.81;5053438;28;20228;-86
2023/08/22 03:48:24;;;;;;;6.93;6.23;;;;;;;21.98;100.00;98436.53;5053546;28;20208;-85
2023/08/22 03:50:50;;;;;;;9.00;7.80;;;;;;;21.98;100.00;98436.53;5053028;28;20208;-85
2023/08/22 03:53:17;;;;;;;7.33;6.60;;;;;;;21.95;100.00;98436.03;5053645;28;20208;-85
2023/08/22 03:55:45;;;;;;;8.30;6.73;;;;;;;21.95;100.00;98441.41;5053385;28;20718;-85
2023/08/22 03:58:12;;;;;;;6.93;6.23;;;;;;;21.89;100.00;98432.16;5053301;28;20671;-85
2023/08/22 04:00:38;;;;;;;7.03;6.10;;;;;;;21.86;100.00;98426.28;5053035;28;20242;-85
2023/08/22 04:03:05;;;;;;;7.57;6.87;;;;;;;21.81;100.00;98428.63;5052927;28;20208;-86
2023/08/22 04:05:32;;;;;;;8.43;7.17;;;;;;;21.79;100.00;98430.66;5053069;28;20208;-85
2023/08/22 04:07:58;;;;;;;7.63;6.73;;;;;;;21.78;100.00;98432.53;5053534;28;20204;-86
2023/08/22 04:10:25;;;;;;;9.03;7.30;;;;;;;21.76;100.00;98426.44;5052833;28;20235;-85
2023/08/22 04:12:52;;;;;;;8.20;7.40;;;;;;;21.76;100.00;98434.53;5052969;28;20670;-85
2023/08/22 04:15:20;;;;;;;7.47;6.67;;;;;;;21.78;100.00;98437.91;5053136;28;20216;-86
2023/08/22 04:17:46;;;;;;;7.10;6.40;;;;;;;21.76;100.00;98429.13;5052788;28;20269;-85
2023/08/22 04:20:13;;;;;;;8.03;7.13;;;;;;;21.79;100.00;98430.66;5053024;28;20698;-85
2023/08/22 04:22:41;;;;;;;7.57;6.77;;;;;;;21.81;100.00;98444.78;5052882;28;20208;-86
2023/08/22 04:25:09;;;;;;;7.57;6.50;;;;;;;21.77;100.00;98448.81;5053069;28;20208;-85
2023/08/22 04:27:35;;;;;;;6.87;6.17;;;;;;;21.72;100.00;98446.66;5052905;28;20239;-86
2023/08/22 04:30:04;;;;;;;7.63;6.83;;;;;;;21.66;100.00;98447.28;5052463;28;20602;-85
2023/08/22 04:32:31;;;;;;;6.97;6.37;;;;;;;21.65;100.00;98445.56;5052460;28;20220;-85
2023/08/22 04:34:57;;;;;;;7.17;6.47;;;;;;;21.65;100.00;98450.13;5052507;28;20319;-85
2023/08/22 04:37:24;;;;;;;7.00;6.30;;;;;;;21.64;100.00;98454.66;5052704;28;20228;-85
2023/08/22 04:39:50;;;;;;;7.53;6.40;;;;;;;21.66;100.00;98452.66;5052300;28;20675;-85
2023/08/22 04:42:17;;;;;;;9.30;6.33;;;;;;;21.66;100.00;98458.06;5052380;28;20228;-85
2023/08/22 04:44:44;;;;;;;7.03;6.30;;;;;;;21.68;100.00;98458.75;5052522;28;20215;-85
2023/08/22 04:47:11;;;;;;;6.90;6.20;;;;;;;21.73;100.00;98466.31;5052151;28;20243;-84
2023/08/22 04:49:38;;;;;;;7.60;6.70;;;;;;;21.85;100.00;98467.66;5052412;28;20208;-84
2023/08/22 04:52:05;;;;;;;9.63;6.90;;;;;;;21.96;100.00;98470.88;5052886;28;20207;-85
2023/08/22 04:54:31;;;;;;;7.77;6.97;;;;;;;22.00;100.00;98461.44;5052528;28;20672;-85
2023/08/22 04:56:58;;;;;;;6.70;6.00;;;;;;;22.01;100.00;98467.66;5052366;28;20232;-84
2023/08/22 04:59:25;;;;;;;7.67;6.80;;;;;;;21.99;100.00;98464.28;5051959;28;20208;-85
2023/08/22 05:01:51;;;;;;;7.53;6.83;;;;;;;21.97;100.00;98466.31;5051825;28;20322;-84
2023/08/22 05:04:19;;;;;;;7.83;6.63;;;;;;;21.97;100.00;98467.16;5052322;28;20582;-85
2023/08/22 05:06:46;;;;;;;7.80;7.03;;;;;;;21.96;100.00;98476.25;5052026;28;20231;-84
2023/08/22 05:09:13;;;;;;;7.10;6.40;;;;;;;21.99;100.00;98478.59;5051666;28;20235;-85
2023/08/22 05:11:40;;;;;;;8.00;7.17;;;;;;;22.02;100.00;98475.56;5051967;28;20752;-84
2023/08/22 05:14:07;;;;;;;7.60;6.53;;;;;;;22.02;100.00;98480.97;5051281;28;20212;-85
2023/08/22 05:16:34;;;;;;;7.87;6.73;;;;;;;22.01;100.00;98484.63;5051619;28;20240;-84
2023/08/22 05:19:00;;;;;;;7.23;6.50;;;;;;;22.03;100.00;98481.78;5051840;28;20211;-85
2023/08/22 05:21:28;;;;;;;9.87;7.30;;;;;;;22.02;100.00;98478.28;5051705;28;20236;-85
2023/08/22 05:23:54;;;;;;;8.27;6.53;;;;;;;22.01;100.00;98479.25;5051798;28;20227;-85
2023/08/22 05:26:21;;;;;;;9.20;7.20;;;;;;;22.02;100.00;98474.72;5051724;28;20606;-85
2023/08/22 05:28:47;;;;;;;7.80;7.07;;;;;;;21.99;100.00;98475.03;5051408;28;20207;-85
2023/08/22 05:31:19;;;;;;;7.27;6.17;;;;;;;22.07;100.00;98483.13;5051431;28;20208;-86
2023/08/22 05:33:46;;;;;;;7.43;6.47;;;;;;;22.20;100.00;98478.06;5051510;28;20208;-85
2023/08/22 05:36:12;;;;;;;8.90;6.57;;;;;;;22.20;100.00;98473.50;5051530;28;20248;-85
2023/08/22 05:38:40;;;;;;;8.70;6.77;;;;;;;22.28;100.00;98470.84;5051588;28;20204;-85
2023/08/22 05:41:07;;;;;;;7.73;6.43;;;;;;;22.37;100.00;98479.75;5051149;28;20228;-84
2023/08/22 05:43:33;;;;;;;6.70;6.00;;;;;;;22.48;100.00;98472.16;5051769;28;20595;-86
2023/08/22 05:46:00;;;;;;;7.53;6.77;;;;;;;22.57;100.00;98476.53;5051463;28;20227;-85
2023/08/22 05:48:27;;;;;;;9.00;6.57;;;;;;;22.69;100.00;98475.16;5051663;28;20207;-84
2023/08/22 05:50:54;;;;;;;7.70;6.77;;;;;;;22.75;100.00;98479.00;5051581;28;20258;-85
2023/08/22 05:53:20;;;;;;;6.97;5.90;;;;;;;22.79;100.00;98480.34;5051299;28;20234;-84
2023/08/22 05:55:48;;;;;;;8.00;6.60;;;;;;;22.89;100.00;98481.81;5051060;28;20228;-85
2023/08/22 05:58:14;;;;;;;7.30;6.50;;;;;;;22.96;100.00;98481.94;5051197;28;20220;-84
2023/08/22 06:00:41;;;;;;;8.07;6.90;;;;;;;23.05;100.00;98487.13;5050871;28;20231;-85
2023/08/22 06:03:08;;;;;;;7.30;6.60;;;;;;;23.32;100.00;98484.00;5051213;28;20545;-85
2023/08/22 06:05:35;;;;;;;8.73;7.00;;;;;;;23.72;100.00;98475.63;5050982;28;20219;-85
2023/08/22 06:08:01;;;;;;;9.77;6.90;;;;;;;24.27;100.00;98476.19;5051087;28;20218;-85
2023/08/22 06:10:28;;;;;;;6.40;5.80;;;;;;;24.87;96.38;98466.13;5050743;28;20208;-85
2023/08/22 06:12:56;;;;;;;6.70;5.80;;;;;;;25.46;93.04;98472.28;5051404;28;20212;-85
2023/08/22 06:15:22;;;;;;;7.03;6.30;;;;;;;25.99;89.44;98461.88;5050865;28;20208;-84
2023/08/22 06:17:48;;;;;;;6.27;5.67;;;;;;;26.48;86.44;98461.81;5050943;28;20238;-85
2023/08/22 06:20:15;;;;;;;6.80;6.10;;;;;;;26.75;82.74;98445.56;5051034;28;20216;-85
2023/08/22 06:22:42;;;;;;;6.70;6.10;;;;;;;26.83;81.69;98456.22;5050827;28;20224;-85
2023/08/22 06:25:09;;;;;;;7.73;6.10;;;;;;;26.62;81.74;98445.47;5051545;28;20220;-85
2023/08/22 06:27:35;;;;;;;6.77;6.03;;;;;;;26.19;83.99;98457.44;5055247;28;20228;-85
2023/08/22 06:30:04;;;;;;;6.23;5.63;;;;;;;25.80;87.08;98461.63;5054788;28;20204;-85
2023/08/22 06:32:30;;;;;;;6.73;6.13;;;;;;;25.46;88.53;98458.75;5054859;28;20278;-85
2023/08/22 06:34:59;;;;;;;6.63;6.03;;;;;;;25.26;89.83;98469.38;5055263;28;20208;-85
2023/08/22 06:37:26;;;;;;;6.37;5.77;;;;;;;25.15;91.36;98466.28;5054909;28;20235;-85
2023/08/22 06:39:52;;;;;;;6.70;5.90;;;;;;;25.10;92.65;98472.25;5054596;28;20211;-84
2023/08/22 06:42:19;;;;;;;6.73;6.10;;;;;;;25.11;93.38;98475.81;5054896;28;20259;-85
2023/08/22 06:44:45;;;;;;;9.13;6.53;;;;;;;25.10;93.12;98474.97;5054879;28;20214;-85
2023/08/22 06:47:13;;;;;;;8.27;6.77;;;;;;;25.13;91.82;98466.47;5054652;28;20232;-84
2023/08/22 06:49:40;;;;;;;7.75;6.93;;;;;;;25.14;91.65;98470.00;5054396;28;20215;-85
2023/08/22 06:52:06;;;;;;;8.27;7.47;;;;;;;25.17;92.42;98483.16;5054471;28;20201;-84
2023/08/22 06:54:33;;;;;;;8.70;7.40;;;;;;;25.18;91.47;98477.56;5054710;28;20373;-86
2023/08/22 06:57:00;;;;;;;7.80;6.87;;;;;;;25.24;90.78;98476.81;5054580;28;20315;-85
2023/08/22 06:59:26;;;;;;;8.63;7.13;;;;;;;25.24;90.01;98479.53;5053935;28;20682;-85
2023/08/22 07:01:53;;;;;;;8.17;7.13;;;;;;;25.32;90.03;98482.16;5054363;28;20232;-85
2023/08/22 07:04:20;;;;;;;7.53;6.83;;;;;;;25.37;90.14;98479.69;5054353;28;20212;-85
2023/08/22 07:06:47;;;;;;;9.03;6.67;;;;;;;25.45;89.93;98478.75;5054173;28;20433;-85
2023/08/22 07:09:13;;;;;;;7.67;6.90;;;;;;;25.49;88.92;98486.28;5054056;28;20231;-85
2023/08/22 07:11:40;;;;;;;8.00;6.17;;;;;;;25.59;88.37;98486.00;5054375;28;20208;-85
2023/08/22 07:14:07;;;;;;;7.77;6.37;;;;;;;25.67;88.12;98488.56;5054354;28;20545;-85
2023/08/22 07:16:33;;;;;;;6.70;6.00;;;;;;;25.77;87.48;98481.81;5054164;28;20239;-85
2023/08/22 07:19:00;;;;;;;6.73;6.13;;;;;;;25.87;85.62;98476.94;5054214;28;20224;-86
2023/08/22 07:21:28;;;;;;;7.10;6.40;;;;;;;25.97;84.46;98474.75;5053557;28;20698;-86
2023/08/22 07:23:54;;;;;;;7.03;6.20;;;;;;;26.10;82.62;98477.56;5054285;28;20208;-85
2023/08/22 07:26:21;;;;;;;7.60;6.63;;;;;;;26.19;80.49;98472.84;5054237;28;20708;-85
2023/08/22 07:28:47;;;;;;;7.80;6.60;;;;;;;26.36;77.87;98469.69;5053837;28;20215;-85
2023/08/22 07:31:14;;;;;;;8.07;7.00;;;;;;;26.40;78.10;98475.53;5053643;28;20216;-86
2023/08/22 07:33:40;;;;;;;7.67;6.80;;;;;;;26.47;77.29;98471.00;5053775;28;20212;-85
2023/08/22 07:36:07;;;;;;;6.68;5.97;;;;;;;26.38;78.76;98470.31;5053865;28;20243;-85
2023/08/22 07:38:35;;;;;;;7.20;6.10;;;;;;;26.45;78.74;98484.75;5053218;28;20212;-86
2023/08/22 07:41:01;;;;;;;6.70;5.90;;;;;;;26.55;78.38;98477.16;5053285;28;20298;-86
2023/08/22 07:43:28;;;;;;;7.35;6.32;;;;;;;26.65;77.63;98474.91;5053800;28;20234;-86
2023/08/22 07:45:54;;;;;;;6.65;6.05;;;;;;;26.70;76.35;98477.84;5053608;28;20234;-86
2023/08/22 07:48:21;;;;;;;7.25;5.57;;;;;;;26.82;75.34;98476.25;5053549;28;20802;-85
2023/08/22 07:50:47;;;;;;;6.17;5.30;;;;;;;26.89;74.59;98476.31;5053399;28;20211;-86
2023/08/22 07:53:14;;;;;;;6.77;5.80;;;;;;;27.01;74.02;98480.13;5053597;28;20204;-86
2023/08/22 07:55:42;;;;;;;6.60;5.90;;;;;;;27.14;73.94;98481.88;5053488;28;20670;-85
2023/08/22 07:58:08;;;;;;;7.10;6.10;;;;;;;27.07;75.16;98480.16;5054043;28;20204;-86
2023/08/22 08:00:34;;;;;;;5.80;5.30;;;;;;;27.14;74.83;98481.06;5053369;28;20208;-85
2023/08/22 08:03:01;;;;;;;8.33;5.60;;;;;;;27.23;74.24;98482.56;5053136;28;20232;-85
2023/08/22 08:05:28;;;;;;;6.45;5.30;;;;;;;27.28;74.08;98478.19;5053201;28;20580;-85
2023/08/22 08:07:55;;;;;;;6.47;5.85;;;;;;;27.36;74.87;98485.34;5053208;28;20666;-86
2023/08/22 08:10:21;;;;;;;6.72;5.28;;;;;;;27.44;74.15;98482.44;5053138;28;20210;-86
2023/08/22 08:12:50;;;;;;;6.53;5.32;;;;;;;27.66;72.05;98478.53;5053274;28;20212;-86
2023/08/22 08:15:16;;;;;;;5.88;5.28;;;;;;;27.75;69.97;98464.56;5053237;28;20230;-85
2023/08/22 08:17:43;;;;;;;5.90;5.18;;;;;;;27.79;69.97;98462.31;5052951;28;20224;-86
2023/08/22 08:20:10;;;;;;;6.30;5.63;;;;;;;27.80;69.79;98466.69;5053043;28;20281;-85
2023/08/22 08:22:37;;;;;;;5.60;5.10;;;;;;;27.81;69.93;98465.66;5053051;28;20232;-86
2023/08/22 08:25:05;;;;;;;5.72;4.90;;;;;;;27.89;70.02;98470.91;5053073;28;20212;-85
2023/08/22 08:27:31;;;;;;;5.75;5.07;;;;;;;28.08;69.44;98473.66;5052835;28;20251;-85
2023/08/22 08:29:59;;;;;;;6.40;5.28;;;;;;;28.18;68.00;98457.75;5052333;28;20294;-85
2023/08/22 08:32:25;;;;;;;5.82;4.97;;;;;;;28.14;66.81;98452.94;5052796;28;20216;-86
2023/08/22 08:34:52;;;;;;;6.18;5.20;;;;;;;28.12;67.34;98457.75;5052938;28;20254;-86
2023/08/22 08:37:20;;;;;;;6.53;5.10;;;;;;;28.19;67.34;98458.59;5052730;28;20235;-86
2023/08/22 08:39:46;;;;;;;7.70;5.35;;;;;;;28.25;67.38;98460.47;5052280;28;20210;-85
2023/08/22 08:42:14;;;;;;;6.40;4.53;;;;;;;28.55;62.86;98445.44;5052319;28;20235;-86
2023/08/22 08:44:42;;;;;;;6.88;4.65;;;;;;;28.53;63.66;98444.78;5052548;28;20219;-86
2023/08/22 08:47:11;;;;;;;5.22;4.70;;;;;;;28.48;63.65;98447.28;5052580;28;20236;-85
2023/08/22 08:49:38;;;;;;;5.25;4.63;;;;;;;28.51;64.24;98455.03;5051349;28;20207;-86
2023/08/22 08:52:08;;;;;;;4.85;4.38;;;;;;;28.62;63.64;98444.34;5052280;28;20649;-86
2023/08/22 08:54:35;;;;;;;4.35;3.95;;;;;;;28.62;61.97;98440.81;5052583;28;20621;-86
2023/08/22 08:57:02;;;;;;;4.32;3.92;;;;;;;28.62;62.46;98451.69;5052407;28;20311;-85
2023/08/22 08:59:29;;;;;;;4.80;4.07;;;;;;;28.67;61.64;98441.84;5052154;28;20214;-86
2023/08/22 09:01:57;;;;;;;5.85;4.35;;;;;;;28.95;61.29;98433.41;5052262;28;20235;-85
2023/08/22 09:04:25;;;;;;;4.65;3.90;;;;;;;28.96;61.50;98443.25;5052136;28;20219;-85
2023/08/22 09:06:51;;;;;;;4.22;3.78;;;;;;;29.02;58.94;98428.78;5051970;28;20224;-85
2023/08/22 09:09:35;;;;;;;4.10;3.60;;;;;;;29.02;60.08;98431.50;5088514;27;21078;-87
2023/08/22 09:12:05;;;;;;;5.35;3.85;;;;;;;29.15;59.79;98431.44;5088933;28;20210;-87
2023/08/22 09:14:32;;;;;;;4.70;4.00;;;;;;;29.28;58.43;98423.25;5089045;28;20211;-87
2023/08/22 09:17:01;;;;;;;5.00;4.00;;;;;;;29.33;57.29;98415.22;5088618;28;20230;-87
2023/08/22 09:19:31;;;;;;;4.60;3.80;;;;;;;29.17;58.48;98424.72;5088388;28;20211;-87
2023/08/22 09:24:34;;;;;;;4.78;4.15;;;;;;;29.24;57.64;98419.28;5047620;28;20269;-84
2023/08/22 09:27:03;;;;;;;4.07;3.70;;;;;;;29.48;58.26;98434.88;5064678;28;20208;-82
2023/08/22 09:29:30;;;;;;;4.85;4.10;;;;;;;29.38;57.02;98412.69;5065096;28;20207;-83
2023/08/22 09:31:58;;;;;;;4.57;4.13;;;;;;;29.49;56.92;98414.75;5066508;28;20214;-82
2023/08/22 09:34:25;;;;;;;5.57;3.80;;;;;;;29.53;56.87;98416.00;5064839;28;20212;-84
2023/08/22 09:36:54;;;;;;;4.13;3.72;;;;;;;29.46;58.01;98423.38;5048568;28;20208;-85
2023/08/22 09:39:23;;;;;;;4.72;4.32;;;;;;;29.49;57.89;98422.91;5048538;28;20204;-84
2023/08/22 09:41:53;;;;;;;5.05;4.40;;;;;;;29.52;58.40;98414.31;5048401;28;20208;-84
2023/08/22 09:44:22;;;;;;;5.03;4.53;;;;;;;29.65;58.55;98417.00;5048205;28;20232;-83
2023/08/22 09:46:50;;;;;;;4.75;4.35;;;;;;;29.72;58.33;98418.59;5048071;28;20679;-84
2023/08/22 09:49:16;;;;;;;4.40;3.92;;;;;;;29.79;57.52;98407.66;5047743;28;20232;-84
2023/08/22 09:51:44;;;;;;;6.07;4.38;;;;;;;29.83;56.36;98400.72;5048242;28;20204;-84
2023/08/22 09:54:11;;;;;;;4.65;4.13;;;;;;;29.81;56.14;98400.09;5048094;28;20247;-86
2023/08/22 09:56:38;;;;;;;5.30;4.57;;;;;;;29.75;56.56;98400.97;5048043;28;20573;-85
2023/08/22 09:59:06;;;;;;;5.85;4.68;;;;;;;29.70;56.25;98403.53;5048166;28;20385;-84
2023/08/22 10:01:34;;;;;;;4.88;4.40;;;;;;;29.86;56.76;98408.44;5048003;28;20553;-84
2023/08/22 10:04:03;;;;;;;5.68;4.10;;;;;;;30.07;56.00;98406.16;5047650;28;20228;-86
2023/08/22 10:06:31;;;;;;;4.85;4.35;;;;;;;30.09;56.74;98409.53;5047806;28;20235;-84
2023/08/22 10:08:59;;;;;;;5.13;4.55;;;;;;;30.16;56.97;98402.16;5047905;28;20239;-86
2023/08/22 10:11:29;;;;;;;4.63;4.15;;;;;;;30.19;55.79;98398.16;5047540;28;20215;-84
2023/08/22 10:13:55;;;;;;;5.35;4.40;;;;;;;30.22;55.53;98398.53;5047751;28;20577;-84
2023/08/22 10:16:28;;;;;;;4.63;4.20;;;;;;;30.18;55.72;98404.63;5047525;28;20208;-84
2023/08/22 10:19:01;;;;;;;4.63;4.22;;;;;;;30.17;55.91;98397.53;5045162;28;20215;-84
2023/08/22 10:21:31;;;;;;;4.88;4.32;;;;;;;30.27;55.90;98400.59;5034203;28;20209;-85
2023/08/22 10:23:59;;;;;;;4.88;4.38;;;;;;;30.42;55.16;98392.88;5034118;28;20244;-85
2023/08/22 10:26:28;;;;;;;4.32;3.92;;;;;;;30.44;56.18;98401.69;5034207;28;20259;-84
2023/08/22 10:29:14;;;;;;;4.30;3.90;;;;;;;30.47;54.45;98385.69;5034049;28;20706;-85
2023/08/22 10:32:14;;;;;;;5.10;4.57;;;;;;;30.54;54.30;98388.34;5034279;28;20205;-85
2023/08/22 10:35:29;;;;;;;4.85;4.32;;;;;;;30.63;53.79;98378.81;5031614;28;20219;-85
2023/08/22 10:37:58;;;;;;;5.13;4.60;;;;;;;30.73;54.40;98381.88;5034236;28;20205;-83
2023/08/22 10:40:32;;;;;;;4.80;4.30;;;;;;;30.75;54.47;98383.31;5033823;28;20266;-85
2023/08/22 10:43:10;;;;;;;5.13;4.20;;;;;;;30.94;53.86;98381.41;5034015;28;20311;-84
2023/08/22 10:45:39;;;;;;;8.40;4.30;;;;;;;31.09;52.30;98370.94;5033980;28;20218;-85
2023/08/22 10:48:09;;;;;;;6.28;4.47;;;;;;;31.16;52.82;98388.06;5034209;28;20232;-85
2023/08/22 10:50:36;;;;;;;5.07;4.00;;;;;;;31.22;51.88;98378.97;5033670;28;20683;-84
2023/08/22 10:53:17;;;;;;;5.43;4.65;;;;;;;31.14;52.06;98376.53;5033635;28;20315;-84
2023/08/22 10:55:44;;;;;;;4.82;4.20;;;;;;;31.15;52.07;98379.03;5033629;28;20239;-84
2023/08/22 10:58:34;;;;;;;5.05;4.38;;;;;;;31.22;53.37;98388.00;5033871;28;20576;-86
2023/08/22 11:01:02;;;;;;;5.20;4.70;;;;;;;31.19;51.55;98363.06;5033538;28;20209;-86
2023/08/22 11:03:29;;;;;;;5.85;4.60;;;;;;;31.16;52.27;98374.41;5033650;28;20283;-84
2023/08/22 11:05:55;;;;;;;4.90;4.30;;;;;;;31.26;52.83;98380.19;5033559;28;20504;-84
2023/08/22 11:08:23;;;;;;;5.47;4.80;;;;;;;31.41;52.24;98370.50;5033141;28;20707;-84
2023/08/22 11:10:52;;;;;;;5.10;4.70;;;;;;;31.47;52.15;98372.31;5033003;28;20687;-85
2023/08/22 11:13:18;;;;;;;5.28;4.70;;;;;;;31.40;51.36;98365.28;5033212;28;20714;-85
2023/08/22 11:15:49;;;;;;;4.90;4.40;;;;;;;31.38;52.05;98364.69;5033708;28;20208;-84
2023/08/22 11:18:16;;;;;;;5.05;4.25;;;;;;;31.51;50.39;98351.66;5033496;28;20236;-85
2023/08/22 11:20:43;;;;;;;4.65;4.10;;;;;;;31.55;50.09;98350.13;5032884;28;20208;-84
2023/08/22 11:23:09;;;;;;;5.25;4.07;;;;;;;31.57;49.89;98355.34;5032940;28;20249;-85
2023/08/22 11:25:38;;;;;;;4.35;3.95;;;;;;;31.54;49.00;98350.38;5033297;28;20606;-84
2023/08/22 11:28:04;;;;;;;4.50;4.05;;;;;;;31.54;49.37;98344.91;5033077;28;20229;-85
2023/08/22 11:30:31;;;;;;;5.53;3.90;;;;;;;31.59;50.00;98358.72;5032278;28;20205;-85
2023/08/22 11:32:57;;;;;;;4.45;4.03;;;;;;;31.71;49.33;98348.59;5032442;28;20238;-84
2023/08/22 11:35:24;;;;;;;4.65;4.15;;;;;;;31.97;48.30;98345.50;5032805;28;20208;-84